sensor_id;sensor_type;location;lat;lon;timestamp;temperature;humidity
14739;DHT22;7461;52.440;13.540;2023-04-15T00:00:58;8.30;99.90
14739;DHT22;7461;52.440;13.540;2023-04-15T00:03:25;8.40;99.90
14739;DHT22;7461;52.440;13.540;2023-04-15T00:05:52;8.40;99.90
14739;DHT22;7461;52.440;13.540;2023-04-15T00:08:19;8.30;99.90
14739;DHT22;7461;52.440;13.540;2023-04-15T00:10:48;8.30;99.90
14739;DHT22;7461;52.440;13.540;2023-04-15T00:13:15;8.30;99.90
14739;DHT22;7461;52.440;13.540;2023-04-15T00:15:42;8.30;99.90
14739;DHT22;7461;52.440;13.540;2023-04-15T00:18:09;8.40;99.90
14739;DHT22;7461;52.440;13.540;2023-04-15T00:20:36;8.30;99.90
14739;DHT22;7461;52.440;13.540;2023-04-15T00:23:03;8.30;99.90
14739;DHT22;7461;52.440;13.540;2023-04-15T00:25:30;8.30;99.90
14739;DHT22;7461;52.440;13.540;2023-04-15T00:27:58;8.30;99.90
14739;DHT22;7461;52.440;13.540;2023-04-15T00:30:26;8.30;99.90
14739;DHT22;7461;52.440;13.540;2023-04-15T00:32:53;8.30;99.90
14739;DHT22;7461;52.440;13.540;2023-04-15T00:35:20;8.30;99.90
14739;DHT22;7461;52.440;13.540;2023-04-15T00:37:48;8.30;99.90
14739;DHT22;7461;52.440;13.540;2023-04-15T00:40:17;8.30;99.90
14739;DHT22;7461;52.440;13.540;2023-04-15T00:42:44;8.30;99.90
14739;DHT22;7461;52.440;13.540;2023-04-15T00:45:13;8.30;99.90
14739;DHT22;7461;52.440;13.540;2023-04-15T00:47:41;8.30;99.90
14739;DHT22;7461;52.440;13.540;2023-04-15T00:50:09;8.30;99.90
14739;DHT22;7461;52.440;13.540;2023-04-15T00:52:37;8.30;99.90
14739;DHT22;7461;52.440;13.540;2023-04-15T00:55:05;8.30;99.90
14739;DHT22;7461;52.440;13.540;2023-04-15T00:57:33;8.30;99.90
14739;DHT22;7461;52.440;13.540;2023-04-15T01:00:01;8.30;99.90
14739;DHT22;7461;52.440;13.540;2023-04-15T01:02:30;8.30;99.90
14739;DHT22;7461;52.440;13.540;2023-04-15T01:04:57;8.30;99.90
14739;DHT22;7461;52.440;13.540;2023-04-15T01:07:25;8.30;99.90
14739;DHT22;7461;52.440;13.540;2023-04-15T01:09:52;8.30;99.90
14739;DHT22;7461;52.440;13.540;2023-04-15T01:12:20;8.30;99.90
14739;DHT22;7461;52.440;13.540;2023-04-15T01:14:47;8.30;99.90
14739;DHT22;7461;52.440;13.540;2023-04-15T01:17:14;8.30;99.90
14739;DHT22;7461;52.440;13.540;2023-04-15T01:19:42;8.30;99.90
14739;DHT22;7461;52.440;13.540;2023-04-15T01:22:09;8.30;99.90
14739;DHT22;7461;52.440;13.540;2023-04-15T01:24:36;8.30;99.90
14739;DHT22;7461;52.440;13.540;2023-04-15T01:27:05;8.30;99.90
14739;DHT22;7461;52.440;13.540;2023-04-15T01:29:34;8.30;99.90
14739;DHT22;7461;52.440;13.540;2023-04-15T01:32:01;8.30;99.90
14739;DHT22;7461;52.440;13.540;2023-04-15T01:34:29;8.30;99.90
14739;DHT22;7461;52.440;13.540;2023-04-15T01:36:55;8.30;99.90
14739;DHT22;7461;52.440;13.540;2023-04-15T01:39:22;8.30;99.90
14739;DHT22;7461;52.440;13.540;2023-04-15T01:41:49;8.30;99.90
14739;DHT22;7461;52.440;13.540;2023-04-15T01:44:18;8.30;99.90
14739;DHT22;7461;52.440;13.540;2023-04-15T01:46:45;8.30;99.90
14739;DHT22;7461;52.440;13.540;2023-04-15T01:49:12;8.30;99.90
14739;DHT22;7461;52.440;13.540;2023-04-15T01:51:42;8.30;99.90
14739;DHT22;7461;52.440;13.540;2023-04-15T01:54:10;8.30;99.90
14739;DHT22;7461;52.440;13.540;2023-04-15T01:56:37;8.30;99.90
14739;DHT22;7461;52.440;13.540;2023-04-15T01:59:04;8.30;99.90
14739;DHT22;7461;52.440;13.540;2023-04-15T02:01:33;8.30;99.90
14739;DHT22;7461;52.440;13.540;2023-04-15T02:04:00;8.20;99.90
14739;DHT22;7461;52.440;13.540;2023-04-15T02:06:27;8.30;99.90
14739;DHT22;7461;52.440;13.540;2023-04-15T02:08:54;8.30;99.90
14739;DHT22;7461;52.440;13.540;2023-04-15T02:11:22;8.20;99.90
14739;DHT22;7461;52.440;13.540;2023-04-15T02:13:49;8.30;99.90
14739;DHT22;7461;52.440;13.540;2023-04-15T02:16:17;8.30;99.90
14739;DHT22;7461;52.440;13.540;2023-04-15T02:18:46;8.30;99.90
14739;DHT22;7461;52.440;13.540;2023-04-15T02:21:13;8.30;99.90
14739;DHT22;7461;52.440;13.540;2023-04-15T02:23:40;8.30;99.90
14739;DHT22;7461;52.440;13.540;2023-04-15T02:26:08;8.30;99.90
14739;DHT22;7461;52.440;13.540;2023-04-15T02:28:35;8.30;99.90
14739;DHT22;7461;52.440;13.540;2023-04-15T02:31:04;8.30;99.90
14739;DHT22;7461;52.440;13.540;2023-04-15T02:33:31;8.30;99.90
14739;DHT22;7461;52.440;13.540;2023-04-15T02:36:00;8.30;99.90
14739;DHT22;7461;52.440;13.540;2023-04-15T02:38:27;8.20;99.90
14739;DHT22;7461;52.440;13.540;2023-04-15T02:40:55;8.30;99.90
14739;DHT22;7461;52.440;13.540;2023-04-15T02:43:23;8.30;99.90
14739;DHT22;7461;52.440;13.540;2023-04-15T02:45:50;8.30;99.90
14739;DHT22;7461;52.440;13.540;2023-04-15T02:48:17;8.30;99.90
14739;DHT22;7461;52.440;13.540;2023-04-15T02:50:45;8.30;99.90
14739;DHT22;7461;52.440;13.540;2023-04-15T02:53:13;8.30;99.90
14739;DHT22;7461;52.440;13.540;2023-04-15T02:55:40;8.30;99.90
14739;DHT22;7461;52.440;13.540;2023-04-15T02:58:08;8.40;99.90
14739;DHT22;7461;52.440;13.540;2023-04-15T03:00:35;8.30;99.90
14739;DHT22;7461;52.440;13.540;2023-04-15T03:03:03;8.30;99.90
14739;DHT22;7461;52.440;13.540;2023-04-15T03:05:31;8.30;99.90
14739;DHT22;7461;52.440;13.540;2023-04-15T03:07:58;8.40;99.90
14739;DHT22;7461;52.440;13.540;2023-04-15T03:10:27;8.40;99.90
14739;DHT22;7461;52.440;13.540;2023-04-15T03:12:54;8.30;99.90
14739;DHT22;7461;52.440;13.540;2023-04-15T03:15:21;8.40;99.90
14739;DHT22;7461;52.440;13.540;2023-04-15T03:17:49;8.40;99.90
14739;DHT22;7461;52.440;13.540;2023-04-15T03:20:19;8.40;99.90
14739;DHT22;7461;52.440;13.540;2023-04-15T03:22:46;8.40;99.90
14739;DHT22;7461;52.440;13.540;2023-04-15T03:25:13;8.40;99.90
14739;DHT22;7461;52.440;13.540;2023-04-15T03:27:42;8.50;99.90
14739;DHT22;7461;52.440;13.540;2023-04-15T03:30:10;8.50;99.90
14739;DHT22;7461;52.440;13.540;2023-04-15T03:32:38;8.50;99.90
14739;DHT22;7461;52.440;13.540;2023-04-15T03:35:06;8.50;99.90
14739;DHT22;7461;52.440;13.540;2023-04-15T03:37:33;8.50;99.90
14739;DHT22;7461;52.440;13.540;2023-04-15T03:40:00;8.50;99.90
14739;DHT22;7461;52.440;13.540;2023-04-15T03:42:27;8.50;99.90
14739;DHT22;7461;52.440;13.540;2023-04-15T03:44:56;8.50;99.90
14739;DHT22;7461;52.440;13.540;2023-04-15T03:47:23;8.50;99.90
14739;DHT22;7461;52.440;13.540;2023-04-15T03:49:50;8.50;99.90
14739;DHT22;7461;52.440;13.540;2023-04-15T03:52:17;8.50;99.90
14739;DHT22;7461;52.440;13.540;2023-04-15T03:54:44;8.60;99.90
14739;DHT22;7461;52.440;13.540;2023-04-15T03:57:12;8.60;99.90
14739;DHT22;7461;52.440;13.540;2023-04-15T03:59:39;8.60;99.90
14739;DHT22;7461;52.440;13.540;2023-04-15T04:02:08;8.60;99.90
14739;DHT22;7461;52.440;13.540;2023-04-15T04:04:35;8.60;99.90
14739;DHT22;7461;52.440;13.540;2023-04-15T04:07:02;8.60;99.90
14739;DHT22;7461;52.440;13.540;2023-04-15T04:09:29;8.60;99.90
14739;DHT22;7461;52.440;13.540;2023-04-15T04:11:56;8.60;99.90
14739;DHT22;7461;52.440;13.540;2023-04-15T04:14:23;8.60;99.90
14739;DHT22;7461;52.440;13.540;2023-04-15T04:16:54;8.60;99.90
14739;DHT22;7461;52.440;13.540;2023-04-15T04:19:23;8.60;99.90
14739;DHT22;7461;52.440;13.540;2023-04-15T04:21:50;8.60;99.90
14739;DHT22;7461;52.440;13.540;2023-04-15T04:24:18;8.60;99.90
14739;DHT22;7461;52.440;13.540;2023-04-15T04:26:45;8.60;99.90
14739;DHT22;7461;52.440;13.540;2023-04-15T04:29:12;8.60;99.90
14739;DHT22;7461;52.440;13.540;2023-04-15T04:31:39;8.60;99.90
14739;DHT22;7461;52.440;13.540;2023-04-15T04:34:06;8.60;99.90
14739;DHT22;7461;52.440;13.540;2023-04-15T04:36:34;8.60;99.90
14739;DHT22;7461;52.440;13.540;2023-04-15T04:39:03;8.70;99.90
14739;DHT22;7461;52.440;13.540;2023-04-15T04:41:30;8.60;99.90
14739;DHT22;7461;52.440;13.540;2023-04-15T04:43:57;8.70;99.90
14739;DHT22;7461;52.440;13.540;2023-04-15T04:46:24;8.70;99.90
14739;DHT22;7461;52.440;13.540;2023-04-15T04:48:52;8.70;99.90
14739;DHT22;7461;52.440;13.540;2023-04-15T04:51:19;8.70;99.90
14739;DHT22;7461;52.440;13.540;2023-04-15T04:53:47;8.70;99.90
14739;DHT22;7461;52.440;13.540;2023-04-15T04:56:14;8.70;99.90
14739;DHT22;7461;52.440;13.540;2023-04-15T04:58:41;8.70;99.90
14739;DHT22;7461;52.440;13.540;2023-04-15T05:01:08;8.70;99.90
14739;DHT22;7461;52.440;13.540;2023-04-15T05:03:35;8.80;99.90
14739;DHT22;7461;52.440;13.540;2023-04-15T05:06:02;8.80;99.90
14739;DHT22;7461;52.440;13.540;2023-04-15T05:08:32;8.80;99.90
14739;DHT22;7461;52.440;13.540;2023-04-15T05:11:00;8.80;99.90
14739;DHT22;7461;52.440;13.540;2023-04-15T05:13:28;8.80;99.90
14739;DHT22;7461;52.440;13.540;2023-04-15T05:15:55;8.80;99.90
14739;DHT22;7461;52.440;13.540;2023-04-15T05:18:22;8.80;99.90
14739;DHT22;7461;52.440;13.540;2023-04-15T05:20:49;8.80;99.90
14739;DHT22;7461;52.440;13.540;2023-04-15T05:23:16;8.80;99.90
14739;DHT22;7461;52.440;13.540;2023-04-15T05:25:43;8.80;99.90
14739;DHT22;7461;52.440;13.540;2023-04-15T05:28:12;8.90;99.90
14739;DHT22;7461;52.440;13.540;2023-04-15T05:30:39;8.90;99.90
14739;DHT22;7461;52.440;13.540;2023-04-15T05:33:06;8.90;99.90
14739;DHT22;7461;52.440;13.540;2023-04-15T05:35:33;8.90;99.90
14739;DHT22;7461;52.440;13.540;2023-04-15T05:38:00;8.90;99.90
14739;DHT22;7461;52.440;13.540;2023-04-15T05:40:29;8.90;99.90
14739;DHT22;7461;52.440;13.540;2023-04-15T05:42:56;9.00;99.90
14739;DHT22;7461;52.440;13.540;2023-04-15T05:45:25;9.00;99.90
14739;DHT22;7461;52.440;13.540;2023-04-15T05:47:52;9.00;99.90
14739;DHT22;7461;52.440;13.540;2023-04-15T05:50:19;9.00;99.90
14739;DHT22;7461;52.440;13.540;2023-04-15T05:52:46;9.00;99.90
14739;DHT22;7461;52.440;13.540;2023-04-15T05:55:13;9.00;99.90
14739;DHT22;7461;52.440;13.540;2023-04-15T05:57:40;9.00;99.90
14739;DHT22;7461;52.440;13.540;2023-04-15T06:00:08;9.00;99.90
14739;DHT22;7461;52.440;13.540;2023-04-15T06:02:40;9.00;99.90
14739;DHT22;7461;52.440;13.540;2023-04-15T06:05:07;9.10;99.90
14739;DHT22;7461;52.440;13.540;2023-04-15T06:07:36;9.10;99.90
14739;DHT22;7461;52.440;13.540;2023-04-15T06:10:04;9.10;99.90
14739;DHT22;7461;52.440;13.540;2023-04-15T06:12:31;9.10;99.90
14739;DHT22;7461;52.440;13.540;2023-04-15T06:14:59;9.10;99.90
14739;DHT22;7461;52.440;13.540;2023-04-15T06:17:26;9.10;99.90
14739;DHT22;7461;52.440;13.540;2023-04-15T06:19:54;9.10;99.90
14739;DHT22;7461;52.440;13.540;2023-04-15T06:22:21;9.20;99.90
14739;DHT22;7461;52.440;13.540;2023-04-15T06:24:49;9.20;99.90
14739;DHT22;7461;52.440;13.540;2023-04-15T06:27:16;9.20;99.90
14739;DHT22;7461;52.440;13.540;2023-04-15T06:29:43;9.20;99.90
14739;DHT22;7461;52.440;13.540;2023-04-15T06:32:11;9.20;99.90
14739;DHT22;7461;52.440;13.540;2023-04-15T06:34:38;9.30;99.90
14739;DHT22;7461;52.440;13.540;2023-04-15T06:37:07;9.30;99.90
14739;DHT22;7461;52.440;13.540;2023-04-15T06:39:38;9.30;99.90
14739;DHT22;7461;52.440;13.540;2023-04-15T06:42:05;9.30;99.90
14739;DHT22;7461;52.440;13.540;2023-04-15T06:44:32;9.40;99.90
14739;DHT22;7461;52.440;13.540;2023-04-15T06:46:59;9.40;99.90
14739;DHT22;7461;52.440;13.540;2023-04-15T06:49:26;9.40;99.90
14739;DHT22;7461;52.440;13.540;2023-04-15T06:51:53;9.40;99.90
14739;DHT22;7461;52.440;13.540;2023-04-15T06:54:29;9.50;99.90
14739;DHT22;7461;52.440;13.540;2023-04-15T06:57:00;9.50;99.90
14739;DHT22;7461;52.440;13.540;2023-04-15T06:59:29;9.50;99.90
14739;DHT22;7461;52.440;13.540;2023-04-15T07:01:56;9.50;99.90
14739;DHT22;7461;52.440;13.540;2023-04-15T07:04:23;9.50;99.90
14739;DHT22;7461;52.440;13.540;2023-04-15T07:06:54;9.50;99.90
14739;DHT22;7461;52.440;13.540;2023-04-15T07:09:22;9.50;99.90
14739;DHT22;7461;52.440;13.540;2023-04-15T07:11:53;9.60;99.90
14739;DHT22;7461;52.440;13.540;2023-04-15T07:14:21;9.60;99.90
14739;DHT22;7461;52.440;13.540;2023-04-15T07:16:48;9.60;99.90
14739;DHT22;7461;52.440;13.540;2023-04-15T07:19:15;9.60;99.90
14739;DHT22;7461;52.440;13.540;2023-04-15T07:21:44;9.60;99.90
14739;DHT22;7461;52.440;13.540;2023-04-15T07:24:11;9.60;99.90
14739;DHT22;7461;52.440;13.540;2023-04-15T07:26:41;9.60;99.90
14739;DHT22;7461;52.440;13.540;2023-04-15T07:29:10;9.50;99.90
14739;DHT22;7461;52.440;13.540;2023-04-15T07:31:38;9.50;99.90
14739;DHT22;7461;52.440;13.540;2023-04-15T07:34:06;9.40;99.90
14739;DHT22;7461;52.440;13.540;2023-04-15T07:36:33;9.40;99.90
14739;DHT22;7461;52.440;13.540;2023-04-15T07:39:00;9.40;99.90
14739;DHT22;7461;52.440;13.540;2023-04-15T07:41:28;9.40;99.90
14739;DHT22;7461;52.440;13.540;2023-04-15T07:43:56;9.40;99.90
14739;DHT22;7461;52.440;13.540;2023-04-15T07:46:24;9.40;99.90
14739;DHT22;7461;52.440;13.540;2023-04-15T07:48:53;9.40;99.90
14739;DHT22;7461;52.440;13.540;2023-04-15T07:51:20;9.40;99.90
14739;DHT22;7461;52.440;13.540;2023-04-15T07:53:48;9.40;99.90
14739;DHT22;7461;52.440;13.540;2023-04-15T07:56:15;9.40;99.90
14739;DHT22;7461;52.440;13.540;2023-04-15T07:58:42;9.40;99.90
14739;DHT22;7461;52.440;13.540;2023-04-15T08:01:09;9.40;99.90
14739;DHT22;7461;52.440;13.540;2023-04-15T08:03:38;9.40;99.90
14739;DHT22;7461;52.440;13.540;2023-04-15T08:06:05;9.40;99.90
14739;DHT22;7461;52.440;13.540;2023-04-15T08:08:32;9.40;99.90
14739;DHT22;7461;52.440;13.540;2023-04-15T08:10:59;9.40;99.90
14739;DHT22;7461;52.440;13.540;2023-04-15T08:13:26;9.40;99.90
14739;DHT22;7461;52.440;13.540;2023-04-15T08:16:16;9.40;99.90
14739;DHT22;7461;52.440;13.540;2023-04-15T08:18:45;9.40;99.90
14739;DHT22;7461;52.440;13.540;2023-04-15T08:21:12;9.40;99.90
14739;DHT22;7461;52.440;13.540;2023-04-15T08:23:40;9.40;99.90
14739;DHT22;7461;52.440;13.540;2023-04-15T08:26:07;9.40;99.90
14739;DHT22;7461;52.440;13.540;2023-04-15T08:28:38;9.40;99.90
14739;DHT22;7461;52.440;13.540;2023-04-15T08:31:05;9.40;99.90
14739;DHT22;7461;52.440;13.540;2023-04-15T08:33:33;9.40;99.90
14739;DHT22;7461;52.440;13.540;2023-04-15T08:36:02;9.40;99.90
14739;DHT22;7461;52.440;13.540;2023-04-15T08:38:29;9.50;99.90
14739;DHT22;7461;52.440;13.540;2023-04-15T08:40:58;9.50;99.90
14739;DHT22;7461;52.440;13.540;2023-04-15T08:43:27;9.50;99.90
14739;DHT22;7461;52.440;13.540;2023-04-15T08:45:55;9.50;99.90
14739;DHT22;7461;52.440;13.540;2023-04-15T08:48:28;9.50;99.90
14739;DHT22;7461;52.440;13.540;2023-04-15T08:50:56;9.50;99.90
14739;DHT22;7461;52.440;13.540;2023-04-15T08:53:26;9.50;99.90
14739;DHT22;7461;52.440;13.540;2023-04-15T08:55:56;9.50;99.90
14739;DHT22;7461;52.440;13.540;2023-04-15T08:58:24;9.50;99.90
14739;DHT22;7461;52.440;13.540;2023-04-15T09:00:51;9.50;99.90
14739;DHT22;7461;52.440;13.540;2023-04-15T09:03:19;9.50;99.90
14739;DHT22;7461;52.440;13.540;2023-04-15T09:05:49;9.60;99.90
14739;DHT22;7461;52.440;13.540;2023-04-15T09:08:16;9.60;99.90
14739;DHT22;7461;52.440;13.540;2023-04-15T09:10:45;9.60;99.90
14739;DHT22;7461;52.440;13.540;2023-04-15T09:13:12;9.70;99.90
14739;DHT22;7461;52.440;13.540;2023-04-15T09:15:39;9.70;99.90
14739;DHT22;7461;52.440;13.540;2023-04-15T09:18:06;9.70;99.90
14739;DHT22;7461;52.440;13.540;2023-04-15T09:20:38;9.70;99.90
14739;DHT22;7461;52.440;13.540;2023-04-15T09:23:11;9.70;99.90
14739;DHT22;7461;52.440;13.540;2023-04-15T09:25:39;9.70;99.90
14739;DHT22;7461;52.440;13.540;2023-04-15T09:28:09;9.80;99.90
14739;DHT22;7461;52.440;13.540;2023-04-15T09:30:36;9.70;99.90
14739;DHT22;7461;52.440;13.540;2023-04-15T09:33:03;9.70;99.90
14739;DHT22;7461;52.440;13.540;2023-04-15T09:35:33;9.70;99.90
14739;DHT22;7461;52.440;13.540;2023-04-15T09:38:04;9.70;99.90
14739;DHT22;7461;52.440;13.540;2023-04-15T09:40:33;9.70;99.90
14739;DHT22;7461;52.440;13.540;2023-04-15T09:43:00;9.70;99.90
14739;DHT22;7461;52.440;13.540;2023-04-15T09:45:29;9.70;99.90
14739;DHT22;7461;52.440;13.540;2023-04-15T09:47:56;9.80;99.90
14739;DHT22;7461;52.440;13.540;2023-04-15T09:50:27;9.80;99.90
14739;DHT22;7461;52.440;13.540;2023-04-15T09:52:55;9.80;99.90
14739;DHT22;7461;52.440;13.540;2023-04-15T09:55:24;9.80;99.90
14739;DHT22;7461;52.440;13.540;2023-04-15T09:57:51;9.80;99.90
14739;DHT22;7461;52.440;13.540;2023-04-15T10:00:18;9.80;99.90
14739;DHT22;7461;52.440;13.540;2023-04-15T10:02:47;9.80;99.90
14739;DHT22;7461;52.440;13.540;2023-04-15T10:05:15;9.80;99.90
14739;DHT22;7461;52.440;13.540;2023-04-15T10:07:42;9.80;99.90
14739;DHT22;7461;52.440;13.540;2023-04-15T10:10:11;9.80;99.90
14739;DHT22;7461;52.440;13.540;2023-04-15T10:12:40;9.80;99.90
14739;DHT22;7461;52.440;13.540;2023-04-15T10:15:14;9.80;99.90
14739;DHT22;7461;52.440;13.540;2023-04-15T10:17:43;9.80;99.90
14739;DHT22;7461;52.440;13.540;2023-04-15T10:20:12;9.80;99.90
14739;DHT22;7461;52.440;13.540;2023-04-15T10:22:41;9.80;99.90
14739;DHT22;7461;52.440;13.540;2023-04-15T10:25:09;9.80;99.90
14739;DHT22;7461;52.440;13.540;2023-04-15T10:27:38;9.80;99.90
14739;DHT22;7461;52.440;13.540;2023-04-15T10:30:07;9.80;99.90
14739;DHT22;7461;52.440;13.540;2023-04-15T10:32:35;9.90;99.90
14739;DHT22;7461;52.440;13.540;2023-04-15T10:35:02;9.80;99.90
14739;DHT22;7461;52.440;13.540;2023-04-15T10:37:36;9.80;99.90
14739;DHT22;7461;52.440;13.540;2023-04-15T10:40:28;9.90;99.90
14739;DHT22;7461;52.440;13.540;2023-04-15T10:42:58;9.90;99.90
14739;DHT22;7461;52.440;13.540;2023-04-15T10:45:26;9.90;99.90
14739;DHT22;7461;52.440;13.540;2023-04-15T10:47:57;10.00;99.90
14739;DHT22;7461;52.440;13.540;2023-04-15T10:50:27;10.00;99.90
14739;DHT22;7461;52.440;13.540;2023-04-15T10:52:56;10.00;99.90
14739;DHT22;7461;52.440;13.540;2023-04-15T10:55:25;10.00;99.90
14739;DHT22;7461;52.440;13.540;2023-04-15T10:57:52;10.00;99.90
14739;DHT22;7461;52.440;13.540;2023-04-15T11:00:24;10.00;99.90
14739;DHT22;7461;52.440;13.540;2023-04-15T11:02:53;10.00;99.90
14739;DHT22;7461;52.440;13.540;2023-04-15T11:05:22;10.00;99.90
14739;DHT22;7461;52.440;13.540;2023-04-15T11:08:12;9.90;99.90
14739;DHT22;7461;52.440;13.540;2023-04-15T11:10:54;10.00;99.90
14739;DHT22;7461;52.440;13.540;2023-04-15T11:13:26;10.00;99.90
14739;DHT22;7461;52.440;13.540;2023-04-15T11:16:01;10.00;99.90
14739;DHT22;7461;52.440;13.540;2023-04-15T11:18:30;10.00;99.90
14739;DHT22;7461;52.440;13.540;2023-04-15T11:20:58;10.00;99.90
14739;DHT22;7461;52.440;13.540;2023-04-15T11:23:29;10.00;99.90
14739;DHT22;7461;52.440;13.540;2023-04-15T11:25:57;10.00;99.90
14739;DHT22;7461;52.440;13.540;2023-04-15T11:28:25;10.00;99.90
14739;DHT22;7461;52.440;13.540;2023-04-15T11:30:53;10.00;99.90
14739;DHT22;7461;52.440;13.540;2023-04-15T11:33:22;10.10;99.90
14739;DHT22;7461;52.440;13.540;2023-04-15T11:38:18;10.10;99.90
14739;DHT22;7461;52.440;13.540;2023-04-15T11:40:46;10.10;99.90
14739;DHT22;7461;52.440;13.540;2023-04-15T11:43:16;10.10;99.90
14739;DHT22;7461;52.440;13.540;2023-04-15T11:45:50;10.10;99.90
14739;DHT22;7461;52.440;13.540;2023-04-15T11:48:18;10.10;99.90
14739;DHT22;7461;52.440;13.540;2023-04-15T11:50:45;10.10;99.90
14739;DHT22;7461;52.440;13.540;2023-04-15T11:53:13;10.10;99.90
14739;DHT22;7461;52.440;13.540;2023-04-15T11:55:44;10.20;99.90
14739;DHT22;7461;52.440;13.540;2023-04-15T11:58:14;10.10;99.90
14739;DHT22;7461;52.440;13.540;2023-04-15T12:00:46;10.20;99.90
14739;DHT22;7461;52.440;13.540;2023-04-15T12:03:18;10.20;99.90
14739;DHT22;7461;52.440;13.540;2023-04-15T12:06:05;10.20;99.90
14739;DHT22;7461;52.440;13.540;2023-04-15T12:09:02;10.20;99.90
14739;DHT22;7461;52.440;13.540;2023-04-15T12:11:41;10.20;99.90
14739;DHT22;7461;52.440;13.540;2023-04-15T12:14:23;10.20;99.90
14739;DHT22;7461;52.440;13.540;2023-04-15T12:16:51;10.20;99.90
14739;DHT22;7461;52.440;13.540;2023-04-15T12:19:23;10.20;99.90
14739;DHT22;7461;52.440;13.540;2023-04-15T12:21:50;10.30;99.90
14739;DHT22;7461;52.440;13.540;2023-04-15T12:24:22;10.30;99.90
14739;DHT22;7461;52.440;13.540;2023-04-15T12:26:50;10.30;99.90
14739;DHT22;7461;52.440;13.540;2023-04-15T12:29:23;10.30;99.90
14739;DHT22;7461;52.440;13.540;2023-04-15T12:31:51;10.30;99.90
14739;DHT22;7461;52.440;13.540;2023-04-15T12:34:26;10.40;99.90
14739;DHT22;7461;52.440;13.540;2023-04-15T12:36:54;10.40;99.90
14739;DHT22;7461;52.440;13.540;2023-04-15T12:39:22;10.40;99.90
14739;DHT22;7461;52.440;13.540;2023-04-15T12:41:49;10.40;99.90
14739;DHT22;7461;52.440;13.540;2023-04-15T12:44:18;10.40;99.90
14739;DHT22;7461;52.440;13.540;2023-04-15T12:46:45;10.40;99.90
14739;DHT22;7461;52.440;13.540;2023-04-15T12:49:12;10.50;99.90
14739;DHT22;7461;52.440;13.540;2023-04-15T12:51:40;10.50;99.90
14739;DHT22;7461;52.440;13.540;2023-04-15T12:54:07;10.50;99.90
14739;DHT22;7461;52.440;13.540;2023-04-15T12:56:34;10.50;99.90
14739;DHT22;7461;52.440;13.540;2023-04-15T12:59:01;10.60;99.90
14739;DHT22;7461;52.440;13.540;2023-04-15T13:01:30;10.60;99.90
14739;DHT22;7461;52.440;13.540;2023-04-15T13:03:57;10.60;99.90
14739;DHT22;7461;52.440;13.540;2023-04-15T13:06:24;10.60;99.90
14739;DHT22;7461;52.440;13.540;2023-04-15T13:08:51;10.50;99.90
14739;DHT22;7461;52.440;13.540;2023-04-15T13:11:19;10.50;99.90
14739;DHT22;7461;52.440;13.540;2023-04-15T13:13:46;10.60;99.90
14739;DHT22;7461;52.440;13.540;2023-04-15T13:16:13;10.60;99.90
14739;DHT22;7461;52.440;13.540;2023-04-15T13:18:42;10.60;99.90
14739;DHT22;7461;52.440;13.540;2023-04-15T13:21:11;10.60;99.90
14739;DHT22;7461;52.440;13.540;2023-04-15T13:23:37;10.60;99.90
14739;DHT22;7461;52.440;13.540;2023-04-15T13:26:05;10.60;99.90
14739;DHT22;7461;52.440;13.540;2023-04-15T13:28:32;10.60;99.90
14739;DHT22;7461;52.440;13.540;2023-04-15T13:30:59;10.60;99.90
14739;DHT22;7461;52.440;13.540;2023-04-15T13:33:26;10.60;99.90
14739;DHT22;7461;52.440;13.540;2023-04-15T13:35:54;10.60;99.90
14739;DHT22;7461;52.440;13.540;2023-04-15T13:38:21;10.60;99.90
14739;DHT22;7461;52.440;13.540;2023-04-15T13:40:48;10.60;99.90
14739;DHT22;7461;52.440;13.540;2023-04-15T13:43:15;10.60;99.90
14739;DHT22;7461;52.440;13.540;2023-04-15T13:45:43;10.60;99.90
14739;DHT22;7461;52.440;13.540;2023-04-15T13:48:10;10.60;99.90
14739;DHT22;7461;52.440;13.540;2023-04-15T13:50:37;10.60;99.90
14739;DHT22;7461;52.440;13.540;2023-04-15T13:53:05;10.60;99.90
14739;DHT22;7461;52.440;13.540;2023-04-15T13:55:32;10.60;99.90
14739;DHT22;7461;52.440;13.540;2023-04-15T13:58:00;10.60;99.90
14739;DHT22;7461;52.440;13.540;2023-04-15T14:00:27;10.70;99.90
14739;DHT22;7461;52.440;13.540;2023-04-15T14:02:54;10.70;99.90
14739;DHT22;7461;52.440;13.540;2023-04-15T14:05:21;10.70;99.90
14739;DHT22;7461;52.440;13.540;2023-04-15T14:07:48;10.70;99.90
14739;DHT22;7461;52.440;13.540;2023-04-15T14:10:16;10.70;99.90
14739;DHT22;7461;52.440;13.540;2023-04-15T14:12:43;10.60;99.90
14739;DHT22;7461;52.440;13.540;2023-04-15T14:15:10;10.60;99.90
14739;DHT22;7461;52.440;13.540;2023-04-15T14:17:37;10.70;99.90
14739;DHT22;7461;52.440;13.540;2023-04-15T14:20:07;10.70;99.90
14739;DHT22;7461;52.440;13.540;2023-04-15T14:22:35;10.70;99.90
14739;DHT22;7461;52.440;13.540;2023-04-15T14:25:02;10.70;99.90
14739;DHT22;7461;52.440;13.540;2023-04-15T14:27:30;10.70;99.90
14739;DHT22;7461;52.440;13.540;2023-04-15T14:29:57;10.70;99.90
14739;DHT22;7461;52.440;13.540;2023-04-15T14:32:25;10.70;99.90
14739;DHT22;7461;52.440;13.540;2023-04-15T14:34:52;10.70;99.90
14739;DHT22;7461;52.440;13.540;2023-04-15T14:37:19;10.70;99.90
14739;DHT22;7461;52.440;13.540;2023-04-15T14:39:46;10.70;99.90
14739;DHT22;7461;52.440;13.540;2023-04-15T14:42:13;10.70;99.90
14739;DHT22;7461;52.440;13.540;2023-04-15T14:44:41;10.70;99.90
14739;DHT22;7461;52.440;13.540;2023-04-15T14:47:09;10.70;99.90
14739;DHT22;7461;52.440;13.540;2023-04-15T14:49:36;10.70;99.90
14739;DHT22;7461;52.440;13.540;2023-04-15T14:52:03;10.80;99.90
14739;DHT22;7461;52.440;13.540;2023-04-15T14:54:30;10.80;99.90
14739;DHT22;7461;52.440;13.540;2023-04-15T14:56:57;10.70;99.90
14739;DHT22;7461;52.440;13.540;2023-04-15T14:59:24;10.80;99.90
14739;DHT22;7461;52.440;13.540;2023-04-15T15:01:53;10.80;99.90
14739;DHT22;7461;52.440;13.540;2023-04-15T15:04:20;10.80;99.90
14739;DHT22;7461;52.440;13.540;2023-04-15T15:06:47;10.80;99.90
14739;DHT22;7461;52.440;13.540;2023-04-15T15:09:14;10.70;99.90
14739;DHT22;7461;52.440;13.540;2023-04-15T15:11:41;10.80;99.90
14739;DHT22;7461;52.440;13.540;2023-04-15T15:14:08;10.80;99.90
14739;DHT22;7461;52.440;13.540;2023-04-15T15:16:35;10.80;99.90
14739;DHT22;7461;52.440;13.540;2023-04-15T15:19:04;10.80;99.90
14739;DHT22;7461;52.440;13.540;2023-04-15T15:21:31;10.80;99.90
14739;DHT22;7461;52.440;13.540;2023-04-15T15:23:59;10.80;99.90
14739;DHT22;7461;52.440;13.540;2023-04-15T15:26:26;10.70;99.90
14739;DHT22;7461;52.440;13.540;2023-04-15T15:28:53;10.70;99.90
14739;DHT22;7461;52.440;13.540;2023-04-15T15:31:20;10.80;99.90
14739;DHT22;7461;52.440;13.540;2023-04-15T15:33:47;10.80;99.90
14739;DHT22;7461;52.440;13.540;2023-04-15T15:36:16;10.80;99.90
14739;DHT22;7461;52.440;13.540;2023-04-15T15:38:43;10.80;99.90
14739;DHT22;7461;52.440;13.540;2023-04-15T15:41:10;10.80;99.90
14739;DHT22;7461;52.440;13.540;2023-04-15T15:43:37;10.80;99.90
14739;DHT22;7461;52.440;13.540;2023-04-15T15:46:04;10.80;99.90
14739;DHT22;7461;52.440;13.540;2023-04-15T15:48:31;10.80;99.90
14739;DHT22;7461;52.440;13.540;2023-04-15T15:50:58;10.80;99.90